createdAt,value
2023-03-25T00:02:26.970Z,41.28
2023-03-25T00:04:56.811Z,41.20
2023-03-25T00:07:23.625Z,41.34
2023-03-25T00:09:50.329Z,40.96
2023-03-25T00:12:18.873Z,40.94
2023-03-25T00:14:54.104Z,40.95
2023-03-25T00:17:22.342Z,41.09
2023-03-25T00:19:49.894Z,40.64
2023-03-25T00:22:18.009Z,40.92
2023-03-25T00:24:44.822Z,40.97
2023-03-25T00:27:13.641Z,40.96
2023-03-25T00:29:43.736Z,40.92
2023-03-25T00:32:12.194Z,40.94
2023-03-25T00:34:46.457Z,40.73
2023-03-25T00:37:17.450Z,40.85
2023-03-25T00:39:45.103Z,40.85
2023-03-25T00:42:15.836Z,40.82
2023-03-25T00:44:43.138Z,40.72
2023-03-25T00:47:11.291Z,40.90
2023-03-25T00:49:37.972Z,40.80
2023-03-25T00:52:04.578Z,41.17
2023-03-25T00:54:33.536Z,40.89
2023-03-25T00:57:00.343Z,41.06
2023-03-25T00:59:27.011Z,41.11
2023-03-25T01:01:55.610Z,40.97
2023-03-25T01:04:22.359Z,40.93
2023-03-25T01:06:51.274Z,40.86
2023-03-25T01:09:19.185Z,41.04
2023-03-25T01:11:47.273Z,40.91
2023-03-25T01:14:17.539Z,41.11
2023-03-25T01:16:45.016Z,40.99
2023-03-25T01:19:13.863Z,41.03
2023-03-25T01:21:41.156Z,40.83
2023-03-25T01:24:11.968Z,40.92
2023-03-25T01:26:40.693Z,41.18
2023-03-25T01:29:07.488Z,41.38
2023-03-25T01:31:34.228Z,41.33
2023-03-25T01:34:01.261Z,41.31
2023-03-25T01:36:28.937Z,41.46
2023-03-25T01:38:58.381Z,41.40
2023-03-25T01:41:29.217Z,41.40
2023-03-25T01:44:18.024Z,41.54
2023-03-25T01:46:46.376Z,41.65
2023-03-25T01:49:23.067Z,41.71
2023-03-25T01:51:54.617Z,41.94
2023-03-25T01:54:21.593Z,41.87
2023-03-25T01:56:50.080Z,41.81
2023-03-25T01:59:19.502Z,41.58
2023-03-25T02:01:46.563Z,41.47
2023-03-25T02:04:22.099Z,41.74
2023-03-25T02:06:53.385Z,41.64
2023-03-25T02:09:24.087Z,41.95
2023-03-25T02:11:54.072Z,42.01
2023-03-25T02:14:26.321Z,42.18
2023-03-25T02:17:14.407Z,42.20
2023-03-25T02:20:05.876Z,42.47
2023-03-25T02:22:49.129Z,42.50
2023-03-25T02:25:49.745Z,42.54
2023-03-25T02:28:55.507Z,42.73
2023-03-25T02:31:56.290Z,42.95
2023-03-25T02:35:11.797Z,43.00
2023-03-25T02:38:08.547Z,43.03
2023-03-25T02:40:38.891Z,42.98
2023-03-25T02:43:13.612Z,42.81
2023-03-25T02:45:49.469Z,42.80
2023-03-25T02:48:25.197Z,42.96
2023-03-25T02:50:56.742Z,42.96
2023-03-25T02:53:35.503Z,43.15
2023-03-25T02:56:10.277Z,43.14
2023-03-25T02:58:39.522Z,43.57
2023-03-25T03:01:09.429Z,43.66
2023-03-25T03:03:36.562Z,43.61
2023-03-25T03:06:06.017Z,43.58
2023-03-25T03:08:48.401Z,43.66
2023-03-25T03:11:17.203Z,43.33
2023-03-25T03:14:05.643Z,43.66
2023-03-25T03:16:38.699Z,43.52
2023-03-25T03:19:50.031Z,43.13
2023-03-25T03:22:26.928Z,43.18
2023-03-25T03:25:15.034Z,43.24
2023-03-25T03:28:03.962Z,43.15
2023-03-25T03:30:46.109Z,43.44
2023-03-25T03:33:29.932Z,43.53
2023-03-25T03:36:15.188Z,43.68
2023-03-25T03:38:49.530Z,43.82
2023-03-25T03:41:20.842Z,44.17
2023-03-25T03:44:07.488Z,44.19
2023-03-25T03:46:49.523Z,44.39
2023-03-25T03:49:20.366Z,44.78
2023-03-25T03:52:02.962Z,44.48
2023-03-25T03:54:42.312Z,44.35
2023-03-25T03:57:29.350Z,44.20
2023-03-25T04:00:09.271Z,44.06
2023-03-25T04:02:54.707Z,43.99
2023-03-25T04:05:30.387Z,44.10
2023-03-25T04:08:11.923Z,43.90
2023-03-25T04:10:54.561Z,43.99
2023-03-25T04:13:23.304Z,44.07
2023-03-25T04:15:50.304Z,43.99
2023-03-25T04:18:17.365Z,44.23
2023-03-25T04:20:49.216Z,44.05
2023-03-25T04:23:15.924Z,44.34
2023-03-25T04:25:47.066Z,44.31
2023-03-25T04:28:17.037Z,44.34
2023-03-25T04:30:48.056Z,44.37
2023-03-25T04:33:14.679Z,44.46
2023-03-25T04:35:41.419Z,44.51
2023-03-25T04:38:08.252Z,44.79
2023-03-25T04:40:34.984Z,44.53
2023-03-25T04:43:01.578Z,44.45
2023-03-25T04:45:30.022Z,44.61
2023-03-25T04:47:57.320Z,44.73
2023-03-25T04:50:27.688Z,44.51
2023-03-25T04:52:59.765Z,44.45
2023-03-25T04:55:26.920Z,44.49
2023-03-25T04:57:54.266Z,45.22
2023-03-25T05:00:23.879Z,45.51
2023-03-25T05:02:55.533Z,45.69
2023-03-25T05:05:24.931Z,45.75
2023-03-25T05:07:57.516Z,46.11
2023-03-25T05:10:25.845Z,46.33
2023-03-25T05:13:00.098Z,46.70
2023-03-25T05:15:27.742Z,46.25
2023-03-25T05:17:54.345Z,46.28
2023-03-25T05:20:21.946Z,46.55
2023-03-25T05:22:48.600Z,47.17
2023-03-25T05:25:15.288Z,47.29
2023-03-25T05:27:42.023Z,47.24
2023-03-25T05:30:09.531Z,47.52
2023-03-25T05:32:36.238Z,47.65
2023-03-25T05:35:03.852Z,47.57
2023-03-25T05:37:30.886Z,47.28
2023-03-25T05:39:57.486Z,47.33
2023-03-25T05:42:24.491Z,47.25
2023-03-25T05:44:52.854Z,47.46
2023-03-25T05:47:22.741Z,47.00
2023-03-25T05:49:50.661Z,47.25
2023-03-25T05:52:18.612Z,46.89
2023-03-25T05:54:51.076Z,46.56
2023-03-25T05:57:17.789Z,46.38
2023-03-25T05:59:44.883Z,45.34
2023-03-25T06:02:13.951Z,44.98
2023-03-25T06:04:42.092Z,44.64
2023-03-25T06:07:19.315Z,44.37
2023-03-25T06:09:47.058Z,44.06
2023-03-25T06:12:16.085Z,43.95
2023-03-25T06:14:45.224Z,43.92
2023-03-25T06:17:18.405Z,43.83
2023-03-25T06:19:45.369Z,44.04
2023-03-25T06:22:12.391Z,43.69
2023-03-25T06:24:40.698Z,43.85
2023-03-25T06:27:12.870Z,43.72
2023-03-25T06:29:42.358Z,43.75
2023-03-25T06:32:12.431Z,43.82
2023-03-25T06:34:41.988Z,44.24
2023-03-25T06:37:09.068Z,44.39
2023-03-25T06:39:37.087Z,44.56
2023-03-25T06:42:10.930Z,44.45
2023-03-25T06:44:50.056Z,44.68
2023-03-25T06:47:35.337Z,44.48
2023-03-25T06:50:02.110Z,44.65
2023-03-25T06:52:28.908Z,44.94
2023-03-25T06:54:55.800Z,44.64
2023-03-25T06:57:22.518Z,44.98
2023-03-25T06:59:49.236Z,45.73
2023-03-25T07:02:16.088Z,46.12
2023-03-25T07:04:42.726Z,46.61
2023-03-25T07:07:09.617Z,46.91
2023-03-25T07:09:36.391Z,47.09
2023-03-25T07:12:03.569Z,47.26
2023-03-25T07:14:30.188Z,47.46
2023-03-25T07:16:56.708Z,47.74
2023-03-25T07:19:23.271Z,47.79
2023-03-25T07:21:50.226Z,47.54
2023-03-25T07:24:16.844Z,47.64
2023-03-25T07:26:43.566Z,47.37
2023-03-25T07:29:10.655Z,47.44
2023-03-25T07:31:38.838Z,47.41
2023-03-25T07:34:07.197Z,47.44
2023-03-25T07:36:33.908Z,47.28
2023-03-25T07:39:00.679Z,46.91
2023-03-25T07:41:27.364Z,46.86
2023-03-25T07:44:09.373Z,46.83
2023-03-25T07:46:37.136Z,46.69
2023-03-25T07:49:03.684Z,46.54
2023-03-25T07:51:32.473Z,46.68
2023-03-25T07:54:05.096Z,46.61
2023-03-25T07:56:33.812Z,46.58
2023-03-25T07:59:00.808Z,46.62
2023-03-25T08:01:27.618Z,46.78
2023-03-25T08:03:54.262Z,46.70
2023-03-25T08:06:20.850Z,46.73
2023-03-25T08:08:47.486Z,46.55
2023-03-25T08:11:14.392Z,46.25
2023-03-25T08:13:41.028Z,46.24
2023-03-25T08:16:14.675Z,45.91
2023-03-25T08:18:44.291Z,45.96
2023-03-25T08:21:12.206Z,46.18
2023-03-25T08:23:38.875Z,46.31
2023-03-25T08:26:05.877Z,46.44
2023-03-25T08:28:32.772Z,46.18
2023-03-25T08:31:01.728Z,46.14
2023-03-25T08:33:33.445Z,46.06
2023-03-25T08:36:01.401Z,46.49
2023-03-25T08:38:33.738Z,46.40
2023-03-25T08:41:02.680Z,46.48
2023-03-25T08:43:29.316Z,46.39
2023-03-25T08:45:55.999Z,46.34
2023-03-25T08:48:24.232Z,46.32
2023-03-25T08:50:50.898Z,46.44
2023-03-25T08:53:17.428Z,46.40
2023-03-25T08:55:44.172Z,46.71
2023-03-25T08:58:10.943Z,46.56
2023-03-25T09:00:38.029Z,46.38
2023-03-25T09:03:05.622Z,46.58
2023-03-25T09:05:32.415Z,46.68
2023-03-25T09:07:59.060Z,46.78
2023-03-25T09:10:26.428Z,46.54
2023-03-25T09:12:53.246Z,46.54
2023-03-25T09:15:20.503Z,46.49
2023-03-25T09:17:47.451Z,46.84
2023-03-25T09:20:14.705Z,47.01
2023-03-25T09:22:41.488Z,47.35
2023-03-25T09:25:08.995Z,47.64
2023-03-25T09:27:36.355Z,47.44
2023-03-25T09:30:04.160Z,47.38
2023-03-25T09:32:30.772Z,47.62
2023-03-25T09:34:57.411Z,48.00
2023-03-25T09:37:24.181Z,48.25
2023-03-25T09:39:50.859Z,48.21
2023-03-25T09:42:23.537Z,48.20
2023-03-25T09:45:02.950Z,48.23
2023-03-25T09:47:34.605Z,48.47
2023-03-25T09:50:10.633Z,48.37
2023-03-25T09:53:09.616Z,48.11
2023-03-25T09:55:41.292Z,48.04
2023-03-25T09:58:23.097Z,48.09
2023-03-25T10:01:13.783Z,48.26
2023-03-25T10:03:58.317Z,48.25
2023-03-25T10:06:26.093Z,48.22
2023-03-25T10:09:15.564Z,48.17
2023-03-25T10:12:31.673Z,47.85
2023-03-25T10:15:16.776Z,47.45
2023-03-25T10:18:14.310Z,47.60
2023-03-25T10:20:56.786Z,47.00
2023-03-25T10:23:41.550Z,46.86
2023-03-25T10:26:26.742Z,46.71
2023-03-25T10:29:03.342Z,47.19
2023-03-25T10:31:36.426Z,47.19
2023-03-25T10:34:16.155Z,47.21
2023-03-25T10:36:48.952Z,46.84
2023-03-25T10:39:21.095Z,46.88
2023-03-25T10:41:55.709Z,46.79
2023-03-25T10:44:26.516Z,46.58
2023-03-25T10:46:59.155Z,46.33
